Sagapo — DGTR2 — position and weather

sailwx.info

Track history (hours):
 
Tides and Currents Weather Stations Pressure Air Temp Water Temp Dewpoint Dewpoint Depression Visibility Wind Speed Wind Dir Waves Ship Positions

Sagapo

Last reported at 2017-Jun-12 09:09 UTC. Time now 2017-Jun-27 00:10 UTC.
Position N 37°09' E 025°47'.
Warning: this ship's position is 14 days out of date.

Length 16 m.

MMSI: 211464750.

Date/timePositionNaut miles runAvg speedWind from/ knotsBaromVisibWave heightAir tempDewpointWater temp
2017-Jun-12 09:09N 37°09' E 025°47'1 8.5
2017-Jun-12 09:00N 37°09' E 025°45'4 8.7
2017-Jun-12 08:30N 37°10' E 025°40'8 7.6
2017-Jun-12 07:27N 37°12' E 025°30'3 6.9
2017-Jun-12 07:00N 37°12' E 025°26'4 7.8
2017-Jun-12 06:30N 37°11' E 025°21'4 7.6
2017-Jun-12 06:00N 37°10' E 025°17'3 5.4
2017-Jun-12 05:30N 37°08' E 025°14'0 0.8
2017-Jun-12 05:00N 37°09' E 025°14'  
2017-Jun-09 13:46N 37°08' E 025°13'0 0.0
2017-Jun-09 13:30N 37°08' E 025°13'0 0.0
2017-Jun-09 13:00N 37°08' E 025°13'0 0.0
2017-Jun-09 12:30N 37°08' E 025°13'0 0.0
2017-Jun-09 12:00N 37°08' E 025°13'1 1.1
2017-Jun-09 11:30N 37°08' E 025°14'4 7.1
2017-Jun-09 11:00N 37°11' E 025°12'3 5.5
2017-Jun-09 10:30N 37°13' E 025°10'3 5.1
2017-Jun-09 09:55N 37°15' E 025°07'2 5.1
2017-Jun-09 09:30N 37°16' E 025°05'2 4.7
2017-Jun-09 09:00N 37°18' E 025°02'3 5.4
2017-Jun-09 08:30N 37°19' E 024°59'3 5.9
2017-Jun-09 08:00N 37°20' E 024°56'2 3.8
2017-Jun-09 07:30N 37°21' E 024°54'3 5.4
2017-Jun-09 07:00N 37°24' E 024°53'0 0.3
2017-Jun-09 06:31N 37°24' E 024°53'0 0.0
2017-Jun-08 18:44N 37°24' E 024°53'0 0.0
2017-Jun-08 18:30N 37°24' E 024°53'0 0.0
2017-Jun-08 18:00N 37°24' E 024°53'0 0.0
2017-Jun-08 17:29N 37°24' E 024°53'  
2017-Jun-06 11:22N 37°23' E 024°53'1 3.8
2017-Jun-06 11:01N 37°22' E 024°53'4 8.3
2017-Jun-06 10:31N 37°22' E 024°58'6 8.3
2017-Jun-06 09:51N 37°22' E 025°05'3 8.4
2017-Jun-06 09:31N 37°22' E 025°09'3 6.0
2017-Jun-06 09:01N 37°22' E 025°12'  
Track history (hours):
 
Tides and Currents Weather Stations Pressure Air Temp Water Temp Dewpoint Dewpoint Depression Visibility Wind Speed Wind Dir Waves Ship Positions

Sagapo

Last reported at 2017-Jun-12 09:09 UTC. Time now 2017-Jun-27 00:10 UTC.
Position N 37°09' E 025°47'.
Warning: this ship's position is 14 days out of date.

Length 16 m.

MMSI: 211464750.

Date/timePositionNaut miles runAvg speedWind from/ knotsBaromVisibWave heightAir tempDewpointWater temp
2017-Jun-12 09:09N 37°09' E 025°47'1 8.5
2017-Jun-12 09:00N 37°09' E 025°45'4 8.7
2017-Jun-12 08:30N 37°10' E 025°40'8 7.6
2017-Jun-12 07:27N 37°12' E 025°30'3 6.9
2017-Jun-12 07:00N 37°12' E 025°26'4 7.8
2017-Jun-12 06:30N 37°11' E 025°21'4 7.6
2017-Jun-12 06:00N 37°10' E 025°17'3 5.4
2017-Jun-12 05:30N 37°08' E 025°14'0 0.8
2017-Jun-12 05:00N 37°09' E 025°14'  
2017-Jun-09 13:46N 37°08' E 025°13'0 0.0
2017-Jun-09 13:30N 37°08' E 025°13'0 0.0
2017-Jun-09 13:00N 37°08' E 025°13'0 0.0
2017-Jun-09 12:30N 37°08' E 025°13'0 0.0
2017-Jun-09 12:00N 37°08' E 025°13'1 1.1
2017-Jun-09 11:30N 37°08' E 025°14'4 7.1
2017-Jun-09 11:00N 37°11' E 025°12'3 5.5
2017-Jun-09 10:30N 37°13' E 025°10'3 5.1
2017-Jun-09 09:55N 37°15' E 025°07'2 5.1
2017-Jun-09 09:30N 37°16' E 025°05'2 4.7
2017-Jun-09 09:00N 37°18' E 025°02'3 5.4
2017-Jun-09 08:30N 37°19' E 024°59'3 5.9
2017-Jun-09 08:00N 37°20' E 024°56'2 3.8
2017-Jun-09 07:30N 37°21' E 024°54'3 5.4
2017-Jun-09 07:00N 37°24' E 024°53'0 0.3
2017-Jun-09 06:31N 37°24' E 024°53'0 0.0
2017-Jun-08 18:44N 37°24' E 024°53'0 0.0
2017-Jun-08 18:30N 37°24' E 024°53'0 0.0
2017-Jun-08 18:00N 37°24' E 024°53'0 0.0
2017-Jun-08 17:29N 37°24' E 024°53'  
2017-Jun-06 11:22N 37°23' E 024°53'1 3.8
2017-Jun-06 11:01N 37°22' E 024°53'4 8.3
2017-Jun-06 10:31N 37°22' E 024°58'6 8.3
2017-Jun-06 09:51N 37°22' E 025°05'3 8.4
2017-Jun-06 09:31N 37°22' E 025°09'3 6.0
2017-Jun-06 09:01N 37°22' E 025°12'  

Dump ship's entire track history